Pansy, Arkansas
Current Conditions -  °F | °C
As of 11:00 AM on Sunday 23 Nov 2014 (Local Time) from KPBF Reporting Station
Moderate Rain Moderate Rain  
Wind Chill: 15°   Ceiling: 4700
Heat Index: 15°   Visibility: 4mi
Dew Point: 14°   Wind: 7mph
Humidity: 96%   Direction: 110°ESE
Pressure: 29.5"   Gusts: NA
Location:  33.947°N, 92.1633°W
Report Text: KPBF 231700Z AUTO 11006KT 4SM RA BR SCT004 BKN047 OVC070 15/14 A2950 RMK AO2 PRESFR P0002 T01500144
Loading
Personal Weather Stations






























Interactive Weather Map New forecast layout! Learn more

10-Day Weather Forecast

Advertisements
Track Severe Weather on mobile